sensor_id;sensor_type;location;lat;lon;timestamp;P1;durP1;ratioP1;P2;durP2;ratioP2
10687;SDS011;5392;42.688;23.298;2022-10-17T00:01:53;9.50;;;7.20;;
10687;SDS011;5392;42.688;23.298;2022-10-17T00:04:20;9.27;;;7.13;;
10687;SDS011;5392;42.688;23.298;2022-10-17T00:06:46;9.90;;;7.55;;
10687;SDS011;5392;42.688;23.298;2022-10-17T00:09:13;10.00;;;7.68;;
10687;SDS011;5392;42.688;23.298;2022-10-17T00:11:39;11.85;;;8.35;;
10687;SDS011;5392;42.688;23.298;2022-10-17T00:14:06;10.85;;;8.20;;
10687;SDS011;5392;42.688;23.298;2022-10-17T00:16:33;11.13;;;8.60;;
10687;SDS011;5392;42.688;23.298;2022-10-17T00:19:02;13.63;;;9.32;;
10687;SDS011;5392;42.688;23.298;2022-10-17T00:21:29;10.32;;;9.25;;
10687;SDS011;5392;42.688;23.298;2022-10-17T00:23:56;12.35;;;9.77;;
10687;SDS011;5392;42.688;23.298;2022-10-17T00:26:22;14.02;;;9.50;;
10687;SDS011;5392;42.688;23.298;2022-10-17T00:28:50;13.85;;;11.63;;
10687;SDS011;5392;42.688;23.298;2022-10-17T00:31:17;13.27;;;11.00;;
10687;SDS011;5392;42.688;23.298;2022-10-17T00:33:45;12.02;;;10.43;;
10687;SDS011;5392;42.688;23.298;2022-10-17T00:36:12;16.80;;;13.95;;
10687;SDS011;5392;42.688;23.298;2022-10-17T00:38:44;39.38;;;29.15;;
10687;SDS011;5392;42.688;23.298;2022-10-17T00:41:12;21.83;;;17.95;;
10687;SDS011;5392;42.688;23.298;2022-10-17T00:43:49;15.30;;;11.25;;
10687;SDS011;5392;42.688;23.298;2022-10-17T00:46:16;10.75;;;9.73;;
10687;SDS011;5392;42.688;23.298;2022-10-17T00:48:42;14.48;;;10.48;;
10687;SDS011;5392;42.688;23.298;2022-10-17T00:51:09;14.68;;;12.18;;
10687;SDS011;5392;42.688;23.298;2022-10-17T00:53:36;13.38;;;11.27;;
10687;SDS011;5392;42.688;23.298;2022-10-17T00:56:02;14.00;;;10.10;;
10687;SDS011;5392;42.688;23.298;2022-10-17T00:58:29;14.00;;;10.55;;
10687;SDS011;5392;42.688;23.298;2022-10-17T01:00:55;12.98;;;11.63;;
10687;SDS011;5392;42.688;23.298;2022-10-17T01:03:22;12.75;;;11.00;;
10687;SDS011;5392;42.688;23.298;2022-10-17T01:05:49;12.98;;;9.88;;
10687;SDS011;5392;42.688;23.298;2022-10-17T01:08:15;13.75;;;10.45;;
10687;SDS011;5392;42.688;23.298;2022-10-17T01:10:49;15.15;;;9.98;;
10687;SDS011;5392;42.688;23.298;2022-10-17T01:13:29;11.60;;;9.55;;
10687;SDS011;5392;42.688;23.298;2022-10-17T01:15:59;10.93;;;9.25;;
10687;SDS011;5392;42.688;23.298;2022-10-17T01:18:37;10.25;;;9.00;;
10687;SDS011;5392;42.688;23.298;2022-10-17T01:31:46;12.63;;;8.73;;
10687;SDS011;5392;42.688;23.298;2022-10-17T01:34:24;9.57;;;8.68;;
10687;SDS011;5392;42.688;23.298;2022-10-17T01:36:55;9.80;;;8.80;;
10687;SDS011;5392;42.688;23.298;2022-10-17T01:42:14;10.85;;;8.68;;
10687;SDS011;5392;42.688;23.298;2022-10-17T01:47:29;11.20;;;9.27;;
10687;SDS011;5392;42.688;23.298;2022-10-17T01:49:57;9.35;;;8.45;;
10687;SDS011;5392;42.688;23.298;2022-10-17T01:52:26;12.48;;;8.77;;
10687;SDS011;5392;42.688;23.298;2022-10-17T01:55:11;16.95;;;9.00;;
10687;SDS011;5392;42.688;23.298;2022-10-17T01:57:40;12.50;;;9.93;;
10687;SDS011;5392;42.688;23.298;2022-10-17T02:00:08;13.80;;;9.70;;
10687;SDS011;5392;42.688;23.298;2022-10-17T02:02:36;10.70;;;8.93;;
10687;SDS011;5392;42.688;23.298;2022-10-17T02:05:03;11.55;;;9.27;;
10687;SDS011;5392;42.688;23.298;2022-10-17T02:07:30;12.32;;;9.23;;
10687;SDS011;5392;42.688;23.298;2022-10-17T02:09:57;11.90;;;9.73;;
10687;SDS011;5392;42.688;23.298;2022-10-17T02:12:29;11.43;;;9.25;;
10687;SDS011;5392;42.688;23.298;2022-10-17T02:15:03;10.35;;;9.23;;
10687;SDS011;5392;42.688;23.298;2022-10-17T02:25:10;10.68;;;9.55;;
10687;SDS011;5392;42.688;23.298;2022-10-17T02:30:08;12.05;;;10.20;;
10687;SDS011;5392;42.688;23.298;2022-10-17T02:35:15;12.05;;;9.40;;
10687;SDS011;5392;42.688;23.298;2022-10-17T02:37:42;14.13;;;9.85;;
10687;SDS011;5392;42.688;23.298;2022-10-17T02:40:11;11.98;;;9.60;;
10687;SDS011;5392;42.688;23.298;2022-10-17T02:42:39;13.65;;;9.35;;
10687;SDS011;5392;42.688;23.298;2022-10-17T02:45:08;17.92;;;9.63;;
10687;SDS011;5392;42.688;23.298;2022-10-17T02:50:21;20.08;;;10.23;;
10687;SDS011;5392;42.688;23.298;2022-10-17T02:52:51;16.52;;;10.77;;
10687;SDS011;5392;42.688;23.298;2022-10-17T02:55:23;13.93;;;11.82;;
10687;SDS011;5392;42.688;23.298;2022-10-17T02:57:51;15.40;;;11.82;;
10687;SDS011;5392;42.688;23.298;2022-10-17T03:00:19;18.70;;;10.98;;
10687;SDS011;5392;42.688;23.298;2022-10-17T03:02:48;14.90;;;11.25;;
10687;SDS011;5392;42.688;23.298;2022-10-17T03:05:17;15.90;;;11.25;;
10687;SDS011;5392;42.688;23.298;2022-10-17T03:07:44;16.23;;;10.88;;
10687;SDS011;5392;42.688;23.298;2022-10-17T03:10:10;11.75;;;10.48;;
10687;SDS011;5392;42.688;23.298;2022-10-17T03:12:37;15.13;;;11.00;;
10687;SDS011;5392;42.688;23.298;2022-10-17T03:15:04;14.75;;;10.27;;
10687;SDS011;5392;42.688;23.298;2022-10-17T03:17:30;14.27;;;10.90;;
10687;SDS011;5392;42.688;23.298;2022-10-17T03:19:57;11.82;;;9.77;;
10687;SDS011;5392;42.688;23.298;2022-10-17T03:22:24;13.05;;;10.05;;
10687;SDS011;5392;42.688;23.298;2022-10-17T03:24:50;16.38;;;10.70;;
10687;SDS011;5392;42.688;23.298;2022-10-17T03:27:17;15.00;;;9.35;;
10687;SDS011;5392;42.688;23.298;2022-10-17T03:29:43;14.85;;;9.82;;
10687;SDS011;5392;42.688;23.298;2022-10-17T03:32:10;12.95;;;9.68;;
10687;SDS011;5392;42.688;23.298;2022-10-17T03:34:36;12.43;;;9.70;;
10687;SDS011;5392;42.688;23.298;2022-10-17T03:37:03;12.25;;;9.57;;
10687;SDS011;5392;42.688;23.298;2022-10-17T03:39:29;10.63;;;9.50;;
10687;SDS011;5392;42.688;23.298;2022-10-17T03:41:56;16.67;;;10.10;;
10687;SDS011;5392;42.688;23.298;2022-10-17T03:44:22;12.38;;;10.32;;
10687;SDS011;5392;42.688;23.298;2022-10-17T03:46:49;16.02;;;10.10;;
10687;SDS011;5392;42.688;23.298;2022-10-17T03:49:15;13.85;;;10.57;;
10687;SDS011;5392;42.688;23.298;2022-10-17T03:51:42;14.95;;;10.82;;
10687;SDS011;5392;42.688;23.298;2022-10-17T03:54:08;16.65;;;11.40;;
10687;SDS011;5392;42.688;23.298;2022-10-17T03:56:35;19.23;;;12.13;;
10687;SDS011;5392;42.688;23.298;2022-10-17T03:59:01;16.88;;;11.63;;
10687;SDS011;5392;42.688;23.298;2022-10-17T04:01:28;18.27;;;12.77;;
10687;SDS011;5392;42.688;23.298;2022-10-17T04:03:55;13.20;;;11.02;;
10687;SDS011;5392;42.688;23.298;2022-10-17T04:06:22;14.75;;;10.02;;
10687;SDS011;5392;42.688;23.298;2022-10-17T04:08:49;14.93;;;10.20;;
10687;SDS011;5392;42.688;23.298;2022-10-17T04:11:17;11.98;;;10.32;;
10687;SDS011;5392;42.688;23.298;2022-10-17T04:13:44;12.82;;;9.98;;
10687;SDS011;5392;42.688;23.298;2022-10-17T04:16:12;14.57;;;11.20;;
10687;SDS011;5392;42.688;23.298;2022-10-17T04:18:39;13.15;;;10.07;;
10687;SDS011;5392;42.688;23.298;2022-10-17T04:21:06;16.20;;;10.57;;
10687;SDS011;5392;42.688;23.298;2022-10-17T04:23:33;14.68;;;10.02;;
10687;SDS011;5392;42.688;23.298;2022-10-17T04:26:01;10.50;;;8.85;;
10687;SDS011;5392;42.688;23.298;2022-10-17T04:28:29;16.20;;;10.40;;
10687;SDS011;5392;42.688;23.298;2022-10-17T04:30:59;14.50;;;11.35;;
10687;SDS011;5392;42.688;23.298;2022-10-17T04:33:25;12.35;;;10.07;;
10687;SDS011;5392;42.688;23.298;2022-10-17T04:36:11;18.30;;;11.65;;
10687;SDS011;5392;42.688;23.298;2022-10-17T04:38:38;17.83;;;11.70;;
10687;SDS011;5392;42.688;23.298;2022-10-17T04:41:07;15.35;;;11.98;;
10687;SDS011;5392;42.688;23.298;2022-10-17T04:43:34;23.08;;;12.95;;
10687;SDS011;5392;42.688;23.298;2022-10-17T04:46:02;21.40;;;12.65;;
10687;SDS011;5392;42.688;23.298;2022-10-17T04:48:29;17.70;;;13.68;;
10687;SDS011;5392;42.688;23.298;2022-10-17T04:51:00;16.02;;;13.32;;
10687;SDS011;5392;42.688;23.298;2022-10-17T04:53:28;20.70;;;15.40;;
10687;SDS011;5392;42.688;23.298;2022-10-17T04:55:55;20.00;;;14.50;;
10687;SDS011;5392;42.688;23.298;2022-10-17T04:58:22;30.42;;;17.20;;
10687;SDS011;5392;42.688;23.298;2022-10-17T05:00:49;23.33;;;13.95;;
10687;SDS011;5392;42.688;23.298;2022-10-17T05:03:15;23.88;;;14.25;;
10687;SDS011;5392;42.688;23.298;2022-10-17T05:05:42;24.63;;;12.98;;
10687;SDS011;5392;42.688;23.298;2022-10-17T05:08:09;9.18;;;6.60;;
10687;SDS011;5392;42.688;23.298;2022-10-17T05:10:37;18.48;;;10.13;;
10687;SDS011;5392;42.688;23.298;2022-10-17T05:13:04;17.85;;;12.25;;
10687;SDS011;5392;42.688;23.298;2022-10-17T05:15:30;16.55;;;8.90;;
10687;SDS011;5392;42.688;23.298;2022-10-17T05:17:57;11.57;;;7.43;;
10687;SDS011;5392;42.688;23.298;2022-10-17T05:20:23;13.10;;;7.40;;
10687;SDS011;5392;42.688;23.298;2022-10-17T05:22:50;16.77;;;9.07;;
10687;SDS011;5392;42.688;23.298;2022-10-17T05:25:16;17.95;;;8.23;;
10687;SDS011;5392;42.688;23.298;2022-10-17T05:27:43;26.33;;;8.80;;
10687;SDS011;5392;42.688;23.298;2022-10-17T05:30:09;16.65;;;7.47;;
10687;SDS011;5392;42.688;23.298;2022-10-17T05:32:36;14.82;;;7.80;;
10687;SDS011;5392;42.688;23.298;2022-10-17T05:35:03;15.23;;;9.20;;
10687;SDS011;5392;42.688;23.298;2022-10-17T05:37:30;15.68;;;8.27;;
10687;SDS011;5392;42.688;23.298;2022-10-17T05:39:56;19.63;;;17.05;;
10687;SDS011;5392;42.688;23.298;2022-10-17T05:42:23;11.77;;;8.32;;
10687;SDS011;5392;42.688;23.298;2022-10-17T05:44:50;13.70;;;8.60;;
10687;SDS011;5392;42.688;23.298;2022-10-17T05:47:16;14.02;;;7.88;;
10687;SDS011;5392;42.688;23.298;2022-10-17T05:49:43;10.35;;;7.43;;
10687;SDS011;5392;42.688;23.298;2022-10-17T05:52:17;10.27;;;8.25;;
10687;SDS011;5392;42.688;23.298;2022-10-17T05:54:43;15.30;;;9.40;;
10687;SDS011;5392;42.688;23.298;2022-10-17T05:57:10;14.05;;;7.95;;
10687;SDS011;5392;42.688;23.298;2022-10-17T05:59:37;11.15;;;8.23;;
10687;SDS011;5392;42.688;23.298;2022-10-17T06:02:03;17.90;;;8.88;;
10687;SDS011;5392;42.688;23.298;2022-10-17T06:04:30;15.23;;;9.25;;
10687;SDS011;5392;42.688;23.298;2022-10-17T06:06:56;15.05;;;9.98;;
10687;SDS011;5392;42.688;23.298;2022-10-17T06:09:23;13.70;;;8.70;;
10687;SDS011;5392;42.688;23.298;2022-10-17T06:11:49;16.95;;;9.10;;
10687;SDS011;5392;42.688;23.298;2022-10-17T06:14:16;25.05;;;10.65;;
10687;SDS011;5392;42.688;23.298;2022-10-17T06:16:42;20.25;;;10.48;;
10687;SDS011;5392;42.688;23.298;2022-10-17T06:19:09;16.63;;;8.63;;
10687;SDS011;5392;42.688;23.298;2022-10-17T06:21:37;16.50;;;8.60;;
10687;SDS011;5392;42.688;23.298;2022-10-17T06:24:04;24.30;;;9.07;;
10687;SDS011;5392;42.688;23.298;2022-10-17T06:26:30;10.57;;;8.38;;
10687;SDS011;5392;42.688;23.298;2022-10-17T06:28:57;15.40;;;9.15;;
10687;SDS011;5392;42.688;23.298;2022-10-17T06:31:23;12.00;;;9.50;;
10687;SDS011;5392;42.688;23.298;2022-10-17T06:33:50;16.40;;;11.32;;
10687;SDS011;5392;42.688;23.298;2022-10-17T06:36:16;15.35;;;9.05;;
10687;SDS011;5392;42.688;23.298;2022-10-17T06:38:43;13.40;;;9.25;;
10687;SDS011;5392;42.688;23.298;2022-10-17T06:41:11;14.32;;;9.60;;
10687;SDS011;5392;42.688;23.298;2022-10-17T06:43:42;14.68;;;8.50;;
10687;SDS011;5392;42.688;23.298;2022-10-17T06:46:15;11.75;;;9.27;;
10687;SDS011;5392;42.688;23.298;2022-10-17T06:48:42;12.68;;;8.95;;
10687;SDS011;5392;42.688;23.298;2022-10-17T06:51:09;15.85;;;10.60;;
10687;SDS011;5392;42.688;23.298;2022-10-17T06:53:37;13.00;;;10.02;;
10687;SDS011;5392;42.688;23.298;2022-10-17T06:56:04;17.98;;;9.38;;
10687;SDS011;5392;42.688;23.298;2022-10-17T06:58:32;13.98;;;9.65;;
10687;SDS011;5392;42.688;23.298;2022-10-17T07:01:03;15.18;;;9.68;;
10687;SDS011;5392;42.688;23.298;2022-10-17T07:03:30;13.15;;;9.88;;
10687;SDS011;5392;42.688;23.298;2022-10-17T07:05:57;22.50;;;11.18;;
10687;SDS011;5392;42.688;23.298;2022-10-17T07:08:23;15.65;;;10.65;;
10687;SDS011;5392;42.688;23.298;2022-10-17T07:10:50;15.77;;;10.90;;
10687;SDS011;5392;42.688;23.298;2022-10-17T07:13:17;13.57;;;9.73;;
10687;SDS011;5392;42.688;23.298;2022-10-17T07:15:44;14.93;;;10.95;;
10687;SDS011;5392;42.688;23.298;2022-10-17T07:18:11;14.38;;;10.15;;
10687;SDS011;5392;42.688;23.298;2022-10-17T07:20:37;22.00;;;10.93;;
10687;SDS011;5392;42.688;23.298;2022-10-17T07:23:05;16.70;;;10.60;;
10687;SDS011;5392;42.688;23.298;2022-10-17T07:25:32;18.55;;;11.80;;
10687;SDS011;5392;42.688;23.298;2022-10-17T07:28:03;14.27;;;11.18;;
10687;SDS011;5392;42.688;23.298;2022-10-17T07:30:29;16.25;;;11.13;;
10687;SDS011;5392;42.688;23.298;2022-10-17T07:32:56;17.55;;;11.10;;
10687;SDS011;5392;42.688;23.298;2022-10-17T07:35:22;14.68;;;11.15;;
10687;SDS011;5392;42.688;23.298;2022-10-17T07:37:49;18.23;;;11.20;;
10687;SDS011;5392;42.688;23.298;2022-10-17T07:40:15;15.95;;;10.80;;
10687;SDS011;5392;42.688;23.298;2022-10-17T07:42:42;15.38;;;10.60;;
10687;SDS011;5392;42.688;23.298;2022-10-17T07:45:08;13.43;;;10.13;;
10687;SDS011;5392;42.688;23.298;2022-10-17T07:47:35;16.55;;;10.38;;
10687;SDS011;5392;42.688;23.298;2022-10-17T07:50:03;12.57;;;10.68;;
10687;SDS011;5392;42.688;23.298;2022-10-17T07:52:30;20.80;;;12.05;;
10687;SDS011;5392;42.688;23.298;2022-10-17T07:54:57;20.10;;;11.63;;
10687;SDS011;5392;42.688;23.298;2022-10-17T07:57:24;14.77;;;11.82;;
10687;SDS011;5392;42.688;23.298;2022-10-17T07:59:50;15.73;;;11.95;;
10687;SDS011;5392;42.688;23.298;2022-10-17T08:02:20;19.20;;;12.25;;
10687;SDS011;5392;42.688;23.298;2022-10-17T08:04:47;22.25;;;12.10;;
10687;SDS011;5392;42.688;23.298;2022-10-17T08:07:14;19.92;;;13.45;;
10687;SDS011;5392;42.688;23.298;2022-10-17T08:09:48;16.80;;;12.95;;
10687;SDS011;5392;42.688;23.298;2022-10-17T08:12:14;20.48;;;13.45;;
10687;SDS011;5392;42.688;23.298;2022-10-17T08:14:41;19.92;;;12.82;;
10687;SDS011;5392;42.688;23.298;2022-10-17T08:17:08;15.50;;;12.45;;
10687;SDS011;5392;42.688;23.298;2022-10-17T08:19:38;21.83;;;12.15;;
10687;SDS011;5392;42.688;23.298;2022-10-17T08:22:06;21.88;;;13.85;;
10687;SDS011;5392;42.688;23.298;2022-10-17T08:24:32;23.33;;;13.93;;
10687;SDS011;5392;42.688;23.298;2022-10-17T08:26:59;24.58;;;14.52;;
10687;SDS011;5392;42.688;23.298;2022-10-17T08:29:26;20.92;;;13.98;;
10687;SDS011;5392;42.688;23.298;2022-10-17T08:31:52;18.95;;;14.48;;
10687;SDS011;5392;42.688;23.298;2022-10-17T08:34:26;18.25;;;13.48;;
10687;SDS011;5392;42.688;23.298;2022-10-17T08:36:53;15.45;;;12.77;;
10687;SDS011;5392;42.688;23.298;2022-10-17T08:39:19;18.67;;;14.05;;
10687;SDS011;5392;42.688;23.298;2022-10-17T08:47:13;24.88;;;13.95;;
10687;SDS011;5392;42.688;23.298;2022-10-17T08:49:48;22.83;;;14.32;;
10687;SDS011;5392;42.688;23.298;2022-10-17T08:54:50;15.57;;;11.68;;
10687;SDS011;5392;42.688;23.298;2022-10-17T08:57:16;15.98;;;12.65;;
10687;SDS011;5392;42.688;23.298;2022-10-17T08:59:43;13.52;;;11.82;;
10687;SDS011;5392;42.688;23.298;2022-10-17T09:09:58;14.27;;;10.23;;
10687;SDS011;5392;42.688;23.298;2022-10-17T09:13:30;14.15;;;9.73;;
10687;SDS011;5392;42.688;23.298;2022-10-17T09:15:33;17.67;;;10.15;;
10687;SDS011;5392;42.688;23.298;2022-10-17T09:18:02;10.90;;;9.27;;
10687;SDS011;5392;42.688;23.298;2022-10-17T09:20:35;12.25;;;9.07;;
10687;SDS011;5392;42.688;23.298;2022-10-17T09:23:14;14.45;;;7.03;;
10687;SDS011;5392;42.688;23.298;2022-10-17T09:25:52;10.27;;;5.65;;
10687;SDS011;5392;42.688;23.298;2022-10-17T09:33:37;6.35;;;5.13;;
10687;SDS011;5392;42.688;23.298;2022-10-17T09:38:54;7.53;;;4.70;;
10687;SDS011;5392;42.688;23.298;2022-10-17T09:41:23;10.63;;;6.88;;
10687;SDS011;5392;42.688;23.298;2022-10-17T09:46:39;7.63;;;4.55;;
10687;SDS011;5392;42.688;23.298;2022-10-17T09:49:11;3.88;;;3.33;;
10687;SDS011;5392;42.688;23.298;2022-10-17T09:51:42;3.63;;;2.63;;
10687;SDS011;5392;42.688;23.298;2022-10-17T09:54:17;5.28;;;1.88;;
10687;SDS011;5392;42.688;23.298;2022-10-17T09:59:37;2.38;;;0.80;;
10687;SDS011;5392;42.688;23.298;2022-10-17T10:05:02;1.40;;;1.23;;
10687;SDS011;5392;42.688;23.298;2022-10-17T10:07:32;1.50;;;0.98;;
10687;SDS011;5392;42.688;23.298;2022-10-17T10:09:59;0.77;;;0.40;;
10687;SDS011;5392;42.688;23.298;2022-10-17T10:12:29;1.15;;;0.50;;
10687;SDS011;5392;42.688;23.298;2022-10-17T10:14:57;0.45;;;0.45;;
10687;SDS011;5392;42.688;23.298;2022-10-17T10:20:00;1.15;;;0.50;;
10687;SDS011;5392;42.688;23.298;2022-10-17T10:22:26;1.13;;;0.50;;
10687;SDS011;5392;42.688;23.298;2022-10-17T10:27:35;0.40;;;0.40;;
10687;SDS011;5392;42.688;23.298;2022-10-17T10:30:02;0.68;;;0.50;;
10687;SDS011;5392;42.688;23.298;2022-10-17T10:37:49;0.40;;;0.40;;
10687;SDS011;5392;42.688;23.298;2022-10-17T10:40:21;0.50;;;0.50;;
10687;SDS011;5392;42.688;23.298;2022-10-17T10:42:49;0.40;;;0.40;;
10687;SDS011;5392;42.688;23.298;2022-10-17T10:45:20;4.80;;;0.50;;
10687;SDS011;5392;42.688;23.298;2022-10-17T10:50:44;0.30;;;0.30;;
10687;SDS011;5392;42.688;23.298;2022-10-17T10:58:38;2.45;;;0.50;;
10687;SDS011;5392;42.688;23.298;2022-10-17T11:04:05;0.57;;;0.43;;
10687;SDS011;5392;42.688;23.298;2022-10-17T11:06:34;0.95;;;0.60;;
10687;SDS011;5392;42.688;23.298;2022-10-17T11:11:52;1.85;;;0.40;;
10687;SDS011;5392;42.688;23.298;2022-10-17T11:16:52;3.22;;;1.77;;
10687;SDS011;5392;42.688;23.298;2022-10-17T11:19:30;0.98;;;0.40;;
10687;SDS011;5392;42.688;23.298;2022-10-17T11:22:14;0.70;;;0.70;;
10687;SDS011;5392;42.688;23.298;2022-10-17T11:27:07;0.40;;;0.40;;
10687;SDS011;5392;42.688;23.298;2022-10-17T11:29:35;0.77;;;0.40;;
10687;SDS011;5392;42.688;23.298;2022-10-17T11:32:14;1.65;;;0.50;;
10687;SDS011;5392;42.688;23.298;2022-10-17T11:34:43;0.90;;;0.50;;
10687;SDS011;5392;42.688;23.298;2022-10-17T11:37:12;1.02;;;0.45;;
10687;SDS011;5392;42.688;23.298;2022-10-17T11:39:42;3.70;;;0.45;;
10687;SDS011;5392;42.688;23.298;2022-10-17T11:42:11;0.50;;;0.50;;
10687;SDS011;5392;42.688;23.298;2022-10-17T11:44:39;1.90;;;0.50;;
10687;SDS011;5392;42.688;23.298;2022-10-17T11:49:37;2.05;;;0.40;;
10687;SDS011;5392;42.688;23.298;2022-10-17T11:52:21;0.40;;;0.40;;
10687;SDS011;5392;42.688;23.298;2022-10-17T11:55:13;1.15;;;0.50;;
10687;SDS011;5392;42.688;23.298;2022-10-17T11:57:48;0.47;;;0.40;;
10687;SDS011;5392;42.688;23.298;2022-10-17T12:01:05;0.50;;;0.50;;
10687;SDS011;5392;42.688;23.298;2022-10-17T12:18:43;0.70;;;0.43;;
10687;SDS011;5392;42.688;23.298;2022-10-17T12:21:09;1.20;;;0.50;;
10687;SDS011;5392;42.688;23.298;2022-10-17T12:23:36;0.40;;;0.40;;
10687;SDS011;5392;42.688;23.298;2022-10-17T12:26:04;1.85;;;0.50;;
10687;SDS011;5392;42.688;23.298;2022-10-17T12:28:32;0.75;;;0.50;;
10687;SDS011;5392;42.688;23.298;2022-10-17T12:31:10;0.70;;;0.50;;
10687;SDS011;5392;42.688;23.298;2022-10-17T12:34:02;1.23;;;0.50;;
10687;SDS011;5392;42.688;23.298;2022-10-17T12:46:41;2.70;;;0.50;;
10687;SDS011;5392;42.688;23.298;2022-10-17T12:49:18;0.40;;;0.40;;
10687;SDS011;5392;42.688;23.298;2022-10-17T12:54:36;2.13;;;0.60;;
10687;SDS011;5392;42.688;23.298;2022-10-17T12:57:55;1.02;;;0.40;;
10687;SDS011;5392;42.688;23.298;2022-10-17T13:00:13;1.55;;;0.40;;
10687;SDS011;5392;42.688;23.298;2022-10-17T13:02:41;0.60;;;0.40;;
10687;SDS011;5392;42.688;23.298;2022-10-17T13:05:10;1.95;;;0.60;;
10687;SDS011;5392;42.688;23.298;2022-10-17T13:07:39;0.70;;;0.50;;
10687;SDS011;5392;42.688;23.298;2022-10-17T13:10:14;1.27;;;0.40;;
10687;SDS011;5392;42.688;23.298;2022-10-17T13:12:44;0.68;;;0.50;;
10687;SDS011;5392;42.688;23.298;2022-10-17T13:15:10;2.13;;;0.57;;
10687;SDS011;5392;42.688;23.298;2022-10-17T13:17:41;1.65;;;0.60;;
10687;SDS011;5392;42.688;23.298;2022-10-17T13:20:19;0.65;;;0.60;;
10687;SDS011;5392;42.688;23.298;2022-10-17T13:22:55;0.40;;;0.40;;
10687;SDS011;5392;42.688;23.298;2022-10-17T13:25:23;0.88;;;0.40;;
10687;SDS011;5392;42.688;23.298;2022-10-17T13:27:50;0.40;;;0.40;;
10687;SDS011;5392;42.688;23.298;2022-10-17T13:30:23;0.75;;;0.50;;
10687;SDS011;5392;42.688;23.298;2022-10-17T13:32:56;0.32;;;0.32;;
10687;SDS011;5392;42.688;23.298;2022-10-17T13:35:24;1.45;;;0.50;;
10687;SDS011;5392;42.688;23.298;2022-10-17T13:38:12;1.10;;;0.50;;
10687;SDS011;5392;42.688;23.298;2022-10-17T13:40:40;1.05;;;0.40;;
10687;SDS011;5392;42.688;23.298;2022-10-17T13:43:19;2.33;;;0.50;;
10687;SDS011;5392;42.688;23.298;2022-10-17T13:45:50;2.00;;;0.60;;
10687;SDS011;5392;42.688;23.298;2022-10-17T13:48:19;1.67;;;0.45;;
10687;SDS011;5392;42.688;23.298;2022-10-17T13:50:48;0.63;;;0.40;;
10687;SDS011;5392;42.688;23.298;2022-10-17T13:53:17;2.45;;;0.52;;
10687;SDS011;5392;42.688;23.298;2022-10-17T13:55:51;0.65;;;0.50;;
10687;SDS011;5392;42.688;23.298;2022-10-17T14:01:13;2.10;;;0.50;;
10687;SDS011;5392;42.688;23.298;2022-10-17T14:03:41;1.02;;;0.50;;
10687;SDS011;5392;42.688;23.298;2022-10-17T14:06:23;0.55;;;0.40;;
10687;SDS011;5392;42.688;23.298;2022-10-17T14:09:00;0.60;;;0.60;;
10687;SDS011;5392;42.688;23.298;2022-10-17T14:11:35;3.10;;;0.60;;
10687;SDS011;5392;42.688;23.298;2022-10-17T14:14:03;0.60;;;0.60;;
10687;SDS011;5392;42.688;23.298;2022-10-17T14:16:35;2.08;;;0.50;;
10687;SDS011;5392;42.688;23.298;2022-10-17T14:19:02;0.55;;;0.55;;
10687;SDS011;5392;42.688;23.298;2022-10-17T14:21:29;0.60;;;0.50;;
10687;SDS011;5392;42.688;23.298;2022-10-17T14:26:46;1.00;;;0.60;;
10687;SDS011;5392;42.688;23.298;2022-10-17T14:29:22;2.58;;;0.75;;
10687;SDS011;5392;42.688;23.298;2022-10-17T14:31:55;1.30;;;0.70;;
10687;SDS011;5392;42.688;23.298;2022-10-17T14:34:25;2.67;;;0.80;;
10687;SDS011;5392;42.688;23.298;2022-10-17T14:36:52;0.95;;;0.60;;
10687;SDS011;5392;42.688;23.298;2022-10-17T14:39:22;0.90;;;0.70;;
10687;SDS011;5392;42.688;23.298;2022-10-17T14:41:49;0.80;;;0.68;;
10687;SDS011;5392;42.688;23.298;2022-10-17T14:46:43;1.75;;;1.00;;
10687;SDS011;5392;42.688;23.298;2022-10-17T14:49:16;2.78;;;0.80;;
10687;SDS011;5392;42.688;23.298;2022-10-17T14:54:55;1.85;;;0.77;;
10687;SDS011;5392;42.688;23.298;2022-10-17T14:57:26;2.60;;;0.90;;
10687;SDS011;5392;42.688;23.298;2022-10-17T14:59:54;3.33;;;0.90;;
10687;SDS011;5392;42.688;23.298;2022-10-17T15:02:22;3.05;;;0.88;;
10687;SDS011;5392;42.688;23.298;2022-10-17T15:04:49;4.78;;;0.80;;
10687;SDS011;5392;42.688;23.298;2022-10-17T15:07:15;3.53;;;1.00;;
10687;SDS011;5392;42.688;23.298;2022-10-17T15:09:42;1.17;;;0.68;;
10687;SDS011;5392;42.688;23.298;2022-10-17T15:12:11;3.03;;;0.90;;
10687;SDS011;5392;42.688;23.298;2022-10-17T15:14:38;2.10;;;0.75;;
10687;SDS011;5392;42.688;23.298;2022-10-17T15:17:23;0.90;;;0.90;;
10687;SDS011;5392;42.688;23.298;2022-10-17T15:19:50;2.85;;;0.80;;
10687;SDS011;5392;42.688;23.298;2022-10-17T15:22:17;0.98;;;0.90;;
10687;SDS011;5392;42.688;23.298;2022-10-17T15:24:44;4.97;;;1.00;;
10687;SDS011;5392;42.688;23.298;2022-10-17T15:27:14;2.20;;;0.90;;
10687;SDS011;5392;42.688;23.298;2022-10-17T15:29:41;0.80;;;0.77;;
10687;SDS011;5392;42.688;23.298;2022-10-17T15:32:08;1.35;;;0.77;;
10687;SDS011;5392;42.688;23.298;2022-10-17T15:34:34;1.52;;;0.73;;
10687;SDS011;5392;42.688;23.298;2022-10-17T15:37:01;2.45;;;1.15;;
10687;SDS011;5392;42.688;23.298;2022-10-17T15:39:29;2.25;;;0.80;;
10687;SDS011;5392;42.688;23.298;2022-10-17T15:41:55;1.55;;;1.10;;
10687;SDS011;5392;42.688;23.298;2022-10-17T15:44:22;2.47;;;1.30;;
10687;SDS011;5392;42.688;23.298;2022-10-17T15:46:48;9.25;;;1.63;;
10687;SDS011;5392;42.688;23.298;2022-10-17T15:49:15;5.80;;;1.65;;
10687;SDS011;5392;42.688;23.298;2022-10-17T15:51:43;3.42;;;1.23;;
10687;SDS011;5392;42.688;23.298;2022-10-17T15:54:10;5.80;;;1.30;;
10687;SDS011;5392;42.688;23.298;2022-10-17T15:56:39;2.47;;;1.17;;
10687;SDS011;5392;42.688;23.298;2022-10-17T15:59:09;5.05;;;1.85;;
10687;SDS011;5392;42.688;23.298;2022-10-17T16:01:36;4.82;;;1.98;;
10687;SDS011;5392;42.688;23.298;2022-10-17T16:04:03;3.97;;;1.60;;
10687;SDS011;5392;42.688;23.298;2022-10-17T16:06:30;8.43;;;2.50;;
10687;SDS011;5392;42.688;23.298;2022-10-17T16:08:56;9.27;;;2.28;;
10687;SDS011;5392;42.688;23.298;2022-10-17T16:11:31;7.38;;;1.38;;
10687;SDS011;5392;42.688;23.298;2022-10-17T16:13:59;2.92;;;1.25;;
10687;SDS011;5392;42.688;23.298;2022-10-17T16:16:26;10.05;;;2.40;;
10687;SDS011;5392;42.688;23.298;2022-10-17T16:18:52;4.03;;;1.73;;
10687;SDS011;5392;42.688;23.298;2022-10-17T16:21:20;10.30;;;2.40;;
10687;SDS011;5392;42.688;23.298;2022-10-17T16:23:48;4.35;;;2.30;;
10687;SDS011;5392;42.688;23.298;2022-10-17T16:26:14;5.20;;;1.65;;
10687;SDS011;5392;42.688;23.298;2022-10-17T16:28:41;4.90;;;2.55;;
10687;SDS011;5392;42.688;23.298;2022-10-17T16:33:47;2.92;;;2.08;;
10687;SDS011;5392;42.688;23.298;2022-10-17T16:36:14;6.72;;;2.05;;
10687;SDS011;5392;42.688;23.298;2022-10-17T16:38:41;3.53;;;2.05;;
10687;SDS011;5392;42.688;23.298;2022-10-17T16:43:47;4.15;;;2.20;;
10687;SDS011;5392;42.688;23.298;2022-10-17T16:46:13;2.45;;;1.33;;
10687;SDS011;5392;42.688;23.298;2022-10-17T16:48:40;6.40;;;2.00;;
10687;SDS011;5392;42.688;23.298;2022-10-17T16:51:07;5.13;;;2.67;;
10687;SDS011;5392;42.688;23.298;2022-10-17T16:53:33;5.88;;;2.55;;
10687;SDS011;5392;42.688;23.298;2022-10-17T16:56:00;3.25;;;2.80;;
10687;SDS011;5392;42.688;23.298;2022-10-17T16:58:27;6.95;;;3.75;;
10687;SDS011;5392;42.688;23.298;2022-10-17T17:00:59;9.48;;;4.32;;
10687;SDS011;5392;42.688;23.298;2022-10-17T17:03:26;9.05;;;4.63;;
10687;SDS011;5392;42.688;23.298;2022-10-17T17:05:52;5.57;;;3.80;;
10687;SDS011;5392;42.688;23.298;2022-10-17T17:08:19;5.60;;;4.25;;